Time;durP1;ratioP1;P1;durP2;ratioP2;P2;SDS_P1;SDS_P2;PMS_P1;PMS_P2;Temp;Humidity;BMP_temperature;BMP_pressure;BME280_temperature;BME280_humidity;BME280_pressure;Samples;Min_cycle;Max_cycle;Signal;HPM_P1;HPM_P2
2023/12/21 00:02:06;;;;;;;0.40;0.40;;;5.00;99.90;;;;;;4373574;32;20501;-77
2023/12/21 00:04:33;;;;;;;0.32;0.32;;;5.10;99.90;;;;;;4371929;32;20444;-78
2023/12/21 00:06:59;;;;;;;0.30;0.30;;;5.20;99.90;;;;;;4375712;32;20122;-78
2023/12/21 00:09:24;;;;;;;0.30;0.30;;;5.20;99.90;;;;;;4375007;32;20443;-78
2023/12/21 00:11:49;;;;;;;0.55;0.55;;;5.20;99.90;;;;;;4373293;32;20090;-77
2023/12/21 00:14:15;;;;;;;0.30;0.30;;;5.20;99.90;;;;;;4373361;32;20063;-78
2023/12/21 00:16:40;;;;;;;0.30;0.30;;;5.30;99.90;;;;;;4372095;32;20074;-77
2023/12/21 00:19:06;;;;;;;0.30;0.30;;;5.30;99.90;;;;;;4373274;32;20526;-78
2023/12/21 00:21:31;;;;;;;0.20;0.20;;;5.30;99.90;;;;;;4377628;32;20073;-77
2023/12/21 00:23:57;;;;;;;0.30;0.30;;;5.40;99.90;;;;;;4376066;32;20134;-78
2023/12/21 00:26:22;;;;;;;0.30;0.30;;;5.40;99.90;;;;;;4373898;32;20144;-77
2023/12/21 00:28:48;;;;;;;0.20;0.20;;;5.40;99.90;;;;;;4374254;32;20073;-77
2023/12/21 00:31:13;;;;;;;0.30;0.30;;;5.40;99.90;;;;;;4371450;32;20094;-78
2023/12/21 00:33:39;;;;;;;0.30;0.30;;;5.40;99.90;;;;;;4375602;32;20530;-79
2023/12/21 00:36:05;;;;;;;0.60;0.60;;;5.50;99.90;;;;;;4374560;32;20086;-77
2023/12/21 00:38:30;;;;;;;0.40;0.40;;;5.50;99.90;;;;;;4375691;32;20200;-76
2023/12/21 00:40:59;;;;;;;0.40;0.40;;;5.60;99.90;;;;;;4373508;32;20090;-76
2023/12/21 00:43:24;;;;;;;0.40;0.40;;;5.60;99.90;;;;;;4374266;32;20559;-79
2023/12/21 00:45:50;;;;;;;0.20;0.20;;;5.70;99.90;;;;;;4371558;32;20071;-79
2023/12/21 00:48:15;;;;;;;0.40;0.40;;;5.70;99.90;;;;;;4374712;32;20432;-78
2023/12/21 00:50:41;;;;;;;0.30;0.30;;;5.80;99.90;;;;;;4374192;32;20074;-79
2023/12/21 00:53:06;;;;;;;0.30;0.30;;;5.80;99.90;;;;;;4369534;32;20074;-79
2023/12/21 00:55:32;;;;;;;0.30;0.30;;;5.90;99.90;;;;;;4372387;32;20472;-80
2023/12/21 00:57:58;;;;;;;0.20;0.20;;;6.00;99.90;;;;;;4374183;32;20086;-79
2023/12/21 01:00:24;;;;;;;0.40;0.40;;;6.00;99.90;;;;;;4371408;32;20087;-79
2023/12/21 01:02:49;;;;;;;0.30;0.30;;;6.00;99.90;;;;;;4370444;32;20526;-79
2023/12/21 01:05:15;;;;;;;0.60;0.60;;;6.00;99.90;;;;;;4371279;32;20662;-77
2023/12/21 01:07:41;;;;;;;0.30;0.30;;;6.10;99.90;;;;;;4374862;32;20636;-77
2023/12/21 01:10:08;;;;;;;0.40;0.40;;;6.10;99.90;;;;;;4374152;32;20087;-76
2023/12/21 01:12:34;;;;;;;0.57;0.57;;;6.10;99.90;;;;;;4375952;32;20094;-76
2023/12/21 01:15:00;;;;;;;0.30;0.30;;;6.20;99.90;;;;;;4372880;32;20447;-77
2023/12/21 01:17:25;;;;;;;0.47;0.47;;;6.30;99.90;;;;;;4374669;32;20082;-77
2023/12/21 01:19:51;;;;;;;0.30;0.30;;;6.30;99.90;;;;;;4375935;32;20077;-78
2023/12/21 01:22:16;;;;;;;0.40;0.40;;;6.30;99.90;;;;;;4373269;32;20067;-78
2023/12/21 01:24:42;;;;;;;0.30;0.30;;;6.40;99.90;;;;;;4372561;32;20086;-77
2023/12/21 01:27:07;;;;;;;0.40;0.40;;;6.50;99.90;;;;;;4372871;32;20128;-76
2023/12/21 01:29:33;;;;;;;0.35;0.35;;;6.50;99.90;;;;;;4379081;32;20099;-78
2023/12/21 01:31:58;;;;;;;0.30;0.30;;;6.50;99.90;;;;;;4376978;32;20082;-76
2023/12/21 01:34:24;;;;;;;0.45;0.45;;;6.50;99.90;;;;;;4377362;32;20431;-77
2023/12/21 01:36:49;;;;;;;0.30;0.30;;;6.60;99.90;;;;;;4379653;32;20403;-77
2023/12/21 01:39:15;;;;;;;1.12;1.02;;;6.60;99.90;;;;;;4378076;32;20097;-77
2023/12/21 01:41:40;;;;;;;0.40;0.40;;;6.60;99.90;;;;;;4376833;32;20134;-77
2023/12/21 01:44:06;;;;;;;0.30;0.30;;;6.60;99.90;;;;;;4373350;32;20091;-77
2023/12/21 01:46:32;;;;;;;0.25;0.25;;;6.60;99.90;;;;;;4375838;32;20136;-78
2023/12/21 01:48:58;;;;;;;0.30;0.30;;;6.70;99.90;;;;;;4375619;32;20085;-78
2023/12/21 01:51:24;;;;;;;0.30;0.30;;;6.70;99.90;;;;;;4375387;32;20137;-77
2023/12/21 01:53:51;;;;;;;0.20;0.20;;;6.70;99.90;;;;;;4378370;32;20530;-79
2023/12/21 01:56:20;;;;;;;0.20;0.20;;;6.70;99.90;;;;;;4371584;32;20853;-79
2023/12/21 01:58:48;;;;;;;0.37;0.37;;;6.80;99.90;;;;;;4376596;32;20071;-79
2023/12/21 02:01:15;;;;;;;0.30;0.30;;;6.80;99.90;;;;;;4377915;32;20062;-79
2023/12/21 02:03:40;;;;;;;0.30;0.30;;;6.80;99.90;;;;;;4376795;32;20091;-78
2023/12/21 02:06:06;;;;;;;0.30;0.30;;;6.80;99.90;;;;;;4374842;32;20436;-78
2023/12/21 02:08:31;;;;;;;0.30;0.30;;;6.80;99.90;;;;;;4375380;32;20070;-78
2023/12/21 02:10:59;;;;;;;0.37;0.37;;;6.70;99.90;;;;;;4375534;32;20109;-79
2023/12/21 02:13:25;;;;;;;0.30;0.30;;;6.80;99.90;;;;;;4374624;32;20082;-79
2023/12/21 02:15:55;;;;;;;0.28;0.28;;;6.80;99.90;;;;;;4383405;32;20613;-79
2023/12/21 02:18:21;;;;;;;0.30;0.30;;;6.80;99.90;;;;;;4378617;32;20086;-79
2023/12/21 02:20:48;;;;;;;0.30;0.30;;;6.80;99.90;;;;;;4377305;32;20082;-79
2023/12/21 02:23:16;;;;;;;0.28;0.28;;;6.80;99.90;;;;;;4379908;32;20078;-79
2023/12/21 02:25:41;;;;;;;0.20;0.20;;;6.80;99.90;;;;;;4381171;32;20074;-79
2023/12/21 02:28:08;;;;;;;0.30;0.30;;;6.90;99.90;;;;;;4380216;32;20307;-80
2023/12/21 02:30:33;;;;;;;0.62;0.57;;;6.90;99.90;;;;;;4377946;32;20059;-80
2023/12/21 02:32:59;;;;;;;0.30;0.30;;;6.90;99.90;;;;;;4382975;32;20066;-80
2023/12/21 02:35:24;;;;;;;0.30;0.30;;;6.90;99.90;;;;;;4380117;32;20531;-79
2023/12/21 02:37:50;;;;;;;0.32;0.32;;;6.90;99.90;;;;;;4386466;32;20082;-79
2023/12/21 02:40:15;;;;;;;0.30;0.30;;;6.90;99.90;;;;;;4383939;32;20074;-79
2023/12/21 02:42:41;;;;;;;0.30;0.30;;;7.00;99.90;;;;;;4383047;32;20541;-79
2023/12/21 02:45:07;;;;;;;0.30;0.30;;;7.00;99.90;;;;;;4378729;32;20071;-77
2023/12/21 02:47:32;;;;;;;0.25;0.25;;;7.00;99.90;;;;;;4379713;32;20069;-77
2023/12/21 02:49:58;;;;;;;0.30;0.30;;;6.90;99.90;;;;;;4382392;32;20073;-76
2023/12/21 02:52:23;;;;;;;0.30;0.30;;;7.00;99.90;;;;;;4381096;32;20114;-76
2023/12/21 02:54:49;;;;;;;0.30;0.30;;;7.00;99.90;;;;;;4383610;32;20062;-77
2023/12/21 02:57:14;;;;;;;0.30;0.30;;;7.00;99.90;;;;;;4380880;32;20065;-77
2023/12/21 02:59:43;;;;;;;0.30;0.30;;;7.00;99.90;;;;;;4381143;32;20162;-77
2023/12/21 03:02:09;;;;;;;0.30;0.30;;;7.00;99.90;;;;;;4382248;32;20129;-77
2023/12/21 03:04:35;;;;;;;0.30;0.30;;;7.00;99.90;;;;;;4368625;32;20533;-77
2023/12/21 03:07:00;;;;;;;0.30;0.30;;;7.00;99.90;;;;;;4367056;32;20128;-77
2023/12/21 03:09:26;;;;;;;0.22;0.22;;;7.00;99.90;;;;;;4364570;32;20107;-77
2023/12/21 03:11:51;;;;;;;0.30;0.30;;;7.00;99.90;;;;;;4365693;32;20080;-78
2023/12/21 03:14:17;;;;;;;0.37;0.37;;;7.00;99.90;;;;;;4358864;32;20071;-77
2023/12/21 03:16:43;;;;;;;0.25;0.25;;;7.00;99.90;;;;;;4359484;32;20364;-76
2023/12/21 03:19:08;;;;;;;0.30;0.30;;;7.00;99.90;;;;;;4361642;32;20071;-75
2023/12/21 03:21:35;;;;;;;0.30;0.30;;;7.10;99.90;;;;;;4360027;32;20452;-75
2023/12/21 03:24:00;;;;;;;0.20;0.20;;;7.10;99.90;;;;;;4360327;32;20084;-77
2023/12/21 03:26:26;;;;;;;0.40;0.40;;;7.10;99.90;;;;;;4357646;32;20074;-77
2023/12/21 03:28:51;;;;;;;0.73;0.60;;;7.10;99.90;;;;;;4358087;32;20075;-78
2023/12/21 03:31:18;;;;;;;0.30;0.30;;;7.10;99.90;;;;;;4361615;32;20086;-77
2023/12/21 03:33:43;;;;;;;0.30;0.30;;;7.10;99.90;;;;;;4359174;32;20082;-77
2023/12/21 03:36:11;;;;;;;0.52;0.52;;;7.10;99.90;;;;;;4358947;32;20538;-77
2023/12/21 03:38:37;;;;;;;0.40;0.40;;;7.10;99.90;;;;;;4361066;32;20103;-77
2023/12/21 03:41:02;;;;;;;0.30;0.30;;;7.20;99.90;;;;;;4362485;32;20079;-77
2023/12/21 03:43:28;;;;;;;0.40;0.40;;;7.20;99.90;;;;;;4360374;32;20074;-78
2023/12/21 03:45:53;;;;;;;0.40;0.40;;;7.20;99.90;;;;;;4358837;32;20082;-78
2023/12/21 03:48:19;;;;;;;0.30;0.30;;;7.20;99.90;;;;;;4360647;32;20416;-77
2023/12/21 03:50:44;;;;;;;0.30;0.30;;;7.30;99.90;;;;;;4357111;32;20331;-78
2023/12/21 03:53:11;;;;;;;0.30;0.30;;;7.30;99.90;;;;;;4358523;32;20087;-77
2023/12/21 03:55:37;;;;;;;0.30;0.30;;;7.30;99.90;;;;;;4358418;32;20086;-77
2023/12/21 03:58:04;;;;;;;0.95;0.40;;;7.30;99.90;;;;;;4355759;32;20704;-77
2023/12/21 04:00:29;;;;;;;0.30;0.30;;;7.30;99.90;;;;;;4360616;32;20333;-78
2023/12/21 04:02:55;;;;;;;0.90;0.50;;;7.30;99.90;;;;;;4360337;32;20091;-78
2023/12/21 04:05:21;;;;;;;0.40;0.40;;;7.30;99.90;;;;;;4370213;32;20125;-78
2023/12/21 04:07:47;;;;;;;0.30;0.30;;;7.40;99.90;;;;;;4374695;32;20062;-78
2023/12/21 04:10:12;;;;;;;0.30;0.30;;;7.40;99.90;;;;;;4372712;32;20518;-78
2023/12/21 04:12:39;;;;;;;0.30;0.30;;;7.40;99.90;;;;;;4373964;32;20131;-78
2023/12/21 04:15:04;;;;;;;0.30;0.30;;;7.40;99.90;;;;;;4373459;32;20141;-78
2023/12/21 04:17:36;;;;;;;0.20;0.20;;;7.40;99.90;;;;;;4376207;32;20140;-78
2023/12/21 04:20:01;;;;;;;0.20;0.20;;;7.40;99.90;;;;;;4375234;32;20087;-78
2023/12/21 04:22:27;;;;;;;0.30;0.30;;;7.40;99.90;;;;;;4372797;32;20062;-77
2023/12/21 04:24:52;;;;;;;0.30;0.30;;;7.40;99.90;;;;;;4375413;32;20070;-78
2023/12/21 04:27:18;;;;;;;0.25;0.22;;;7.50;99.90;;;;;;4375381;32;20779;-77
2023/12/21 04:29:43;;;;;;;0.30;0.30;;;7.50;99.90;;;;;;4372204;32;20079;-78
2023/12/21 04:32:09;;;;;;;0.57;0.57;;;7.50;99.90;;;;;;4373149;32;20058;-78
2023/12/21 04:34:35;;;;;;;0.30;0.30;;;7.60;99.90;;;;;;4374704;32;20102;-78
2023/12/21 04:37:00;;;;;;;0.30;0.30;;;7.60;99.90;;;;;;4377449;32;20070;-78
2023/12/21 04:39:26;;;;;;;0.20;0.20;;;7.60;99.90;;;;;;4374677;32;20527;-78
2023/12/21 04:41:52;;;;;;;0.30;0.30;;;7.70;99.90;;;;;;4373426;32;20539;-78
2023/12/21 04:44:18;;;;;;;0.30;0.30;;;7.70;99.90;;;;;;4375108;32;20071;-78
2023/12/21 04:46:47;;;;;;;0.30;0.30;;;7.80;99.90;;;;;;4372749;32;20065;-78
2023/12/21 04:49:13;;;;;;;0.40;0.40;;;7.80;99.90;;;;;;4371930;32;20087;-78
2023/12/21 04:51:39;;;;;;;0.20;0.20;;;7.90;99.90;;;;;;4375681;32;20059;-78
2023/12/21 04:54:05;;;;;;;0.30;0.30;;;7.90;99.90;;;;;;4374746;32;20133;-78
2023/12/21 04:56:31;;;;;;;0.30;0.30;;;7.90;99.90;;;;;;4373618;32;20087;-78
2023/12/21 04:58:57;;;;;;;0.30;0.30;;;8.00;99.90;;;;;;4370810;32;20073;-78
2023/12/21 05:01:22;;;;;;;0.30;0.30;;;8.00;99.90;;;;;;4371079;32;20077;-79
2023/12/21 05:03:48;;;;;;;0.25;0.25;;;8.00;99.90;;;;;;4373786;32;20538;-78
2023/12/21 05:06:14;;;;;;;0.40;0.40;;;8.00;99.90;;;;;;4375499;32;20083;-78
2023/12/21 05:08:39;;;;;;;0.30;0.30;;;8.00;99.90;;;;;;4376378;32;20078;-78
2023/12/21 05:11:05;;;;;;;0.30;0.30;;;8.10;99.90;;;;;;4375856;32;20157;-78
2023/12/21 05:13:31;;;;;;;0.20;0.20;;;8.20;99.90;;;;;;4376974;32;20085;-78
2023/12/21 05:15:56;;;;;;;0.30;0.30;;;8.20;99.90;;;;;;4376765;32;20090;-78
2023/12/21 05:18:23;;;;;;;0.30;0.30;;;8.20;99.90;;;;;;4377120;32;20094;-78
2023/12/21 05:20:49;;;;;;;0.28;0.28;;;8.20;99.90;;;;;;4376548;32;20062;-78
2023/12/21 05:23:15;;;;;;;0.40;0.40;;;8.20;99.90;;;;;;4373638;32;20149;-78
2023/12/21 05:25:41;;;;;;;0.30;0.30;;;8.20;99.90;;;;;;4380673;32;20276;-78
2023/12/21 05:28:11;;;;;;;0.25;0.25;;;8.20;99.90;;;;;;4375889;32;20597;-79
2023/12/21 05:30:38;;;;;;;0.30;0.30;;;8.20;99.90;;;;;;4378006;32;20070;-79
2023/12/21 05:33:03;;;;;;;0.30;0.30;;;8.20;99.90;;;;;;4379001;32;20081;-79
2023/12/21 05:35:29;;;;;;;0.30;0.30;;;8.20;99.90;;;;;;4382448;32;20147;-80
2023/12/21 05:37:54;;;;;;;0.40;0.40;;;8.20;99.90;;;;;;4383932;32;20094;-80
2023/12/21 05:40:22;;;;;;;0.30;0.30;;;8.20;99.90;;;;;;4382518;32;20517;-81
2023/12/21 05:42:47;;;;;;;0.30;0.30;;;8.20;99.90;;;;;;4381018;32;20066;-80
2023/12/21 05:45:13;;;;;;;0.30;0.30;;;8.30;99.90;;;;;;4382776;32;20878;-80
2023/12/21 05:47:38;;;;;;;0.60;0.57;;;8.30;99.90;;;;;;4378156;32;20130;-79
2023/12/21 05:50:04;;;;;;;0.20;0.20;;;8.20;99.90;;;;;;4377970;32;20082;-79
2023/12/21 05:52:30;;;;;;;0.30;0.30;;;8.20;99.90;;;;;;4379810;32;20432;-79
2023/12/21 05:54:56;;;;;;;0.20;0.20;;;8.20;99.90;;;;;;4378190;32;20127;-79
2023/12/21 05:57:21;;;;;;;0.37;0.37;;;8.20;99.90;;;;;;4375449;32;20122;-80
2023/12/21 05:59:47;;;;;;;0.30;0.30;;;8.20;99.90;;;;;;4377655;32;20089;-79
2023/12/21 06:02:12;;;;;;;0.98;0.40;;;8.20;99.90;;;;;;4379148;32;20110;-79
2023/12/21 06:04:38;;;;;;;0.28;0.28;;;8.20;99.90;;;;;;4375132;32;20527;-79
2023/12/21 06:07:03;;;;;;;0.22;0.22;;;8.20;99.90;;;;;;4367039;32;20133;-79
2023/12/21 06:09:29;;;;;;;0.30;0.30;;;8.20;99.90;;;;;;4376348;32;20763;-78
2023/12/21 06:11:54;;;;;;;0.20;0.20;;;8.20;99.90;;;;;;4370977;32;20122;-80
2023/12/21 06:14:20;;;;;;;0.30;0.30;;;8.20;99.90;;;;;;4363285;32;20078;-78
2023/12/21 06:16:46;;;;;;;3.47;0.95;;;8.20;99.90;;;;;;4375424;32;20484;-78
2023/12/21 06:19:11;;;;;;;1.73;0.65;;;8.20;99.90;;;;;;4375298;32;20079;-79
2023/12/21 06:21:38;;;;;;;0.25;0.25;;;8.20;99.90;;;;;;4363388;32;20600;-78
2023/12/21 06:24:05;;;;;;;0.30;0.30;;;8.20;99.90;;;;;;4377226;32;20633;-79
2023/12/21 06:26:31;;;;;;;0.20;0.20;;;8.30;99.90;;;;;;4363303;32;20106;-80
2023/12/21 06:28:57;;;;;;;0.28;0.28;;;8.30;99.90;;;;;;4370379;32;20082;-79
2023/12/21 06:31:23;;;;;;;0.30;0.30;;;8.30;99.90;;;;;;4370863;32;20474;-80
2023/12/21 06:33:49;;;;;;;0.35;0.32;;;8.30;99.90;;;;;;4368295;32;20472;-79
2023/12/21 06:36:14;;;;;;;0.30;0.30;;;8.20;99.90;;;;;;4367936;32;20098;-80
2023/12/21 06:38:40;;;;;;;0.32;0.32;;;8.20;99.90;;;;;;4354892;32;20094;-78
2023/12/21 06:41:06;;;;;;;0.30;0.30;;;8.20;99.90;;;;;;4364955;32;20633;-79
2023/12/21 06:43:32;;;;;;;1.75;1.00;;;8.20;99.90;;;;;;4372446;32;20133;-77
2023/12/21 06:45:57;;;;;;;0.28;0.28;;;8.20;99.90;;;;;;4371958;32;20090;-79
2023/12/21 06:48:23;;;;;;;0.30;0.30;;;8.10;99.90;;;;;;4361963;32;20078;-78
2023/12/21 06:50:48;;;;;;;0.30;0.30;;;8.00;99.90;;;;;;4367648;32;20065;-77
2023/12/21 06:53:15;;;;;;;0.30;0.30;;;7.90;99.90;;;;;;4360754;32;20106;-77
2023/12/21 06:55:42;;;;;;;0.20;0.20;;;7.90;99.90;;;;;;4358297;32;20133;-77
2023/12/21 06:58:08;;;;;;;0.20;0.20;;;7.90;99.90;;;;;;4358230;32;20460;-78
2023/12/21 07:00:34;;;;;;;0.30;0.30;;;7.90;99.90;;;;;;4339424;32;20082;-77
2023/12/21 07:03:00;;;;;;;0.30;0.30;;;7.80;99.90;;;;;;4351536;32;20848;-77
2023/12/21 07:05:25;;;;;;;0.30;0.30;;;7.80;99.90;;;;;;4361644;32;20099;-80
2023/12/21 07:07:53;;;;;;;0.30;0.30;;;7.80;99.90;;;;;;4351999;32;20090;-77
2023/12/21 07:10:19;;;;;;;0.55;0.55;;;7.70;99.90;;;;;;4354784;32;20106;-78
2023/12/21 07:12:45;;;;;;;0.30;0.30;;;7.70;99.90;;;;;;4359266;32;20123;-77
2023/12/21 07:15:11;;;;;;;0.20;0.20;;;7.70;99.90;;;;;;4345971;32;20094;-78
2023/12/21 07:17:37;;;;;;;0.40;0.40;;;7.70;99.90;;;;;;4352766;32;21512;-78
2023/12/21 07:20:02;;;;;;;0.40;0.40;;;7.70;99.90;;;;;;4362924;32;20078;-78
2023/12/21 07:22:28;;;;;;;0.28;0.28;;;7.60;99.90;;;;;;4360843;32;20099;-77
2023/12/21 07:24:53;;;;;;;0.30;0.30;;;7.70;99.90;;;;;;4359809;32;20645;-78
2023/12/21 07:27:19;;;;;;;0.30;0.30;;;7.70;99.90;;;;;;4360678;32;20094;-77
2023/12/21 07:29:51;;;;;;;0.35;0.35;;;7.60;99.90;;;;;;4349097;32;20089;-77
2023/12/21 07:32:16;;;;;;;0.30;0.30;;;7.60;99.90;;;;;;4362964;32;20083;-79
2023/12/21 07:34:42;;;;;;;0.25;0.25;;;7.70;99.90;;;;;;4372733;32;20096;-77
2023/12/21 07:37:08;;;;;;;0.20;0.20;;;7.70;99.90;;;;;;4373395;32;20122;-77
2023/12/21 07:39:36;;;;;;;0.25;0.25;;;7.70;99.90;;;;;;4372597;32;20086;-81
2023/12/21 07:42:02;;;;;;;0.30;0.30;;;7.60;99.90;;;;;;4374788;32;20091;-79
2023/12/21 07:44:27;;;;;;;0.37;0.37;;;7.70;99.90;;;;;;4360335;32;20086;-77
2023/12/21 07:46:53;;;;;;;0.37;0.37;;;7.70;99.90;;;;;;4364915;32;20819;-76
2023/12/21 07:49:19;;;;;;;0.30;0.30;;;7.70;99.90;;;;;;4362383;32;20087;-77
2023/12/21 07:51:46;;;;;;;0.40;0.40;;;7.70;99.90;;;;;;4364434;32;20435;-78
2023/12/21 07:54:11;;;;;;;0.30;0.30;;;7.70;99.90;;;;;;4362098;32;20122;-77
2023/12/21 07:56:37;;;;;;;0.40;0.40;;;7.80;99.90;;;;;;4361203;32;20704;-77
2023/12/21 07:59:06;;;;;;;0.75;0.52;;;7.80;99.90;;;;;;4355418;32;20617;-76
2023/12/21 08:01:32;;;;;;;0.20;0.20;;;7.80;99.90;;;;;;4353921;32;20111;-76
2023/12/21 08:03:58;;;;;;;0.32;0.32;;;7.90;99.90;;;;;;4361775;32;20094;-77
2023/12/21 08:06:25;;;;;;;0.30;0.30;;;7.90;99.90;;;;;;4363487;32;20082;-77
2023/12/21 08:08:54;;;;;;;0.20;0.20;;;7.80;99.90;;;;;;4363567;32;20078;-78
2023/12/21 08:11:20;;;;;;;0.35;0.35;;;7.80;99.90;;;;;;4361635;32;20082;-78
2023/12/21 08:13:46;;;;;;;0.20;0.20;;;7.80;99.90;;;;;;4371734;32;22153;-78
2023/12/21 08:16:12;;;;;;;0.30;0.30;;;7.80;99.90;;;;;;4378116;32;20082;-78
2023/12/21 08:18:38;;;;;;;0.30;0.30;;;7.90;99.90;;;;;;4374709;32;20648;-78
2023/12/21 08:21:03;;;;;;;0.20;0.20;;;7.90;99.90;;;;;;4368630;32;20083;-78
2023/12/21 08:23:29;;;;;;;0.30;0.30;;;7.90;99.90;;;;;;4368506;32;21962;-78
2023/12/21 08:25:55;;;;;;;0.30;0.30;;;7.90;99.90;;;;;;4372164;32;20138;-80
2023/12/21 08:28:20;;;;;;;0.30;0.30;;;7.90;99.90;;;;;;4362992;32;20117;-79
2023/12/21 08:30:47;;;;;;;0.30;0.30;;;7.90;99.90;;;;;;4365592;32;20090;-79
2023/12/21 08:33:13;;;;;;;0.20;0.20;;;7.90;99.90;;;;;;4364802;32;20191;-78
2023/12/21 08:35:38;;;;;;;0.35;0.35;;;7.90;99.90;;;;;;4365629;32;20771;-77
2023/12/21 08:38:05;;;;;;;0.20;0.20;;;7.90;99.90;;;;;;4366494;32;20487;-76
2023/12/21 08:40:32;;;;;;;0.30;0.30;;;7.90;99.90;;;;;;4369244;32;20890;-77
2023/12/21 08:42:58;;;;;;;0.30;0.30;;;7.90;99.90;;;;;;4364037;32;20110;-78
2023/12/21 08:45:24;;;;;;;0.30;0.30;;;7.90;99.90;;;;;;4364953;32;20573;-78
2023/12/21 08:47:49;;;;;;;0.30;0.30;;;7.90;99.90;;;;;;4356073;32;20089;-78
2023/12/21 08:50:18;;;;;;;0.40;0.37;;;7.90;99.90;;;;;;4360851;32;20782;-78
2023/12/21 08:52:44;;;;;;;0.30;0.30;;;7.90;99.90;;;;;;4354567;32;20082;-80
2023/12/21 08:55:10;;;;;;;0.30;0.30;;;7.90;99.90;;;;;;4343505;32;20111;-77
2023/12/21 08:57:37;;;;;;;0.30;0.30;;;7.90;99.90;;;;;;4352403;32;20101;-78
2023/12/21 09:00:05;;;;;;;0.30;0.30;;;7.90;99.90;;;;;;4359593;32;20514;-78
2023/12/21 09:02:33;;;;;;;0.30;0.30;;;7.90;99.90;;;;;;4372893;32;20391;-79
2023/12/21 09:05:00;;;;;;;0.30;0.30;;;8.00;99.90;;;;;;4344993;32;20467;-78
2023/12/21 09:07:25;;;;;;;0.40;0.40;;;7.90;99.90;;;;;;4357135;32;20464;-77
2023/12/21 09:09:51;;;;;;;0.30;0.30;;;7.90;99.90;;;;;;4363746;32;20123;-76
2023/12/21 09:12:18;;;;;;;0.40;0.40;;;7.90;99.90;;;;;;4354868;32;20602;-77
2023/12/21 09:14:44;;;;;;;0.30;0.30;;;8.00;99.90;;;;;;4362776;32;20608;-77
2023/12/21 09:17:10;;;;;;;0.30;0.30;;;8.00;99.90;;;;;;4354248;32;20230;-78
2023/12/21 09:19:36;;;;;;;0.30;0.30;;;7.90;99.90;;;;;;4356802;32;20157;-76
2023/12/21 09:22:01;;;;;;;0.30;0.30;;;8.00;99.90;;;;;;4358959;32;20082;-76
2023/12/21 09:24:27;;;;;;;0.20;0.20;;;8.00;99.90;;;;;;4359945;32;20113;-76
2023/12/21 09:26:52;;;;;;;0.50;0.50;;;8.00;99.90;;;;;;4349755;32;20624;-77
2023/12/21 09:29:18;;;;;;;0.20;0.20;;;8.10;99.90;;;;;;4359644;32;20074;-80
2023/12/21 09:31:44;;;;;;;0.20;0.20;;;8.10;99.90;;;;;;4362326;32;20175;-79
2023/12/21 09:34:11;;;;;;;0.22;0.22;;;8.10;99.90;;;;;;4346848;32;20268;-78
2023/12/21 09:36:36;;;;;;;1.20;0.47;;;8.10;99.90;;;;;;4355635;32;20673;-77
2023/12/21 09:39:03;;;;;;;0.20;0.20;;;8.20;99.90;;;;;;4352528;32;20091;-78
2023/12/21 09:41:29;;;;;;;0.30;0.30;;;8.20;99.90;;;;;;4360012;32;20086;-78
2023/12/21 09:43:57;;;;;;;0.32;0.32;;;8.20;99.90;;;;;;4354637;32;20102;-78
2023/12/21 09:46:25;;;;;;;0.30;0.30;;;8.20;99.90;;;;;;4359570;32;20677;-79
2023/12/21 09:48:53;;;;;;;0.30;0.30;;;8.20;99.90;;;;;;4361044;32;20110;-78
2023/12/21 09:51:19;;;;;;;0.20;0.20;;;8.20;99.90;;;;;;4360394;32;20874;-80
2023/12/21 09:53:46;;;;;;;0.30;0.30;;;8.20;99.90;;;;;;4360679;32;20110;-78
2023/12/21 09:56:14;;;;;;;0.30;0.30;;;8.20;99.90;;;;;;4359608;32;20114;-78
2023/12/21 09:58:41;;;;;;;0.25;0.25;;;8.20;99.90;;;;;;4366572;32;20136;-78
2023/12/21 10:01:07;;;;;;;0.40;0.40;;;8.20;99.90;;;;;;4364701;32;20104;-78
2023/12/21 10:03:33;;;;;;;0.47;0.47;;;8.20;99.90;;;;;;4369910;32;20363;-78
2023/12/21 10:06:03;;;;;;;0.30;0.30;;;8.20;99.90;;;;;;4367358;32;20774;-79
2023/12/21 10:08:31;;;;;;;0.40;0.40;;;8.20;99.90;;;;;;4362087;32;20447;-77
2023/12/21 10:10:59;;;;;;;0.30;0.30;;;8.20;99.90;;;;;;4364074;32;20789;-78
2023/12/21 10:13:25;;;;;;;0.30;0.30;;;8.30;99.90;;;;;;4366798;32;20855;-79
2023/12/21 10:15:59;;;;;;;0.40;0.40;;;8.30;99.90;;;;;;4371014;32;20079;-78
2023/12/21 10:18:26;;;;;;;0.30;0.30;;;8.20;99.90;;;;;;4362151;32;20098;-78
2023/12/21 10:20:53;;;;;;;0.30;0.30;;;8.20;99.90;;;;;;4357521;32;20091;-78
2023/12/21 10:23:20;;;;;;;0.20;0.20;;;8.30;99.90;;;;;;4352485;32;20106;-77
2023/12/21 10:25:46;;;;;;;0.30;0.30;;;8.20;99.90;;;;;;4348145;32;20106;-77
2023/12/21 10:28:12;;;;;;;0.30;0.30;;;8.30;99.90;;;;;;4344587;32;20695;-78
2023/12/21 10:30:38;;;;;;;0.40;0.40;;;8.30;99.90;;;;;;4349468;32;20196;-77
2023/12/21 10:33:04;;;;;;;0.22;0.22;;;8.30;99.90;;;;;;4356013;32;20094;-77
2023/12/21 10:35:31;;;;;;;0.20;0.20;;;8.40;99.90;;;;;;4355572;32;20091;-77
2023/12/21 10:37:57;;;;;;;0.32;0.32;;;8.40;99.90;;;;;;4363295;32;20110;-79
2023/12/21 10:40:23;;;;;;;0.30;0.30;;;8.40;99.90;;;;;;4358598;32;20206;-79
2023/12/21 10:42:51;;;;;;;0.40;0.40;;;8.40;99.90;;;;;;4363873;32;20101;-79
2023/12/21 10:45:18;;;;;;;0.30;0.30;;;8.40;99.90;;;;;;4364039;32;20086;-79
2023/12/21 10:47:49;;;;;;;0.28;0.28;;;8.40;99.90;;;;;;4366182;32;20086;-76
2023/12/21 10:50:16;;;;;;;0.40;0.40;;;8.40;99.90;;;;;;4357207;32;20086;-78
2023/12/21 10:52:43;;;;;;;0.30;0.30;;;8.40;99.90;;;;;;4361524;32;20093;-80
2023/12/21 10:55:10;;;;;;;0.30;0.30;;;8.40;99.90;;;;;;4369584;32;20541;-79
2023/12/21 10:57:41;;;;;;;0.30;0.30;;;8.40;99.90;;;;;;4366709;32;20074;-80
2023/12/21 11:02:35;;;;;;;0.30;0.30;;;8.50;99.90;;;;;;4363825;32;20328;-78
2023/12/21 11:05:01;;;;;;;0.30;0.30;;;8.50;99.90;;;;;;4356988;32;20078;-79
2023/12/21 11:07:26;;;;;;;0.20;0.20;;;8.50;99.90;;;;;;4369267;32;20067;-78
2023/12/21 11:09:53;;;;;;;0.20;0.20;;;8.50;99.90;;;;;;4362142;32;20102;-79
2023/12/21 11:12:19;;;;;;;0.30;0.30;;;8.50;99.90;;;;;;4363787;32;20145;-79
2023/12/21 11:14:44;;;;;;;0.30;0.30;;;8.50;99.90;;;;;;4367225;32;22208;-77
2023/12/21 11:17:11;;;;;;;0.30;0.30;;;8.50;99.90;;;;;;4362053;32;20344;-80
2023/12/21 11:19:40;;;;;;;0.30;0.30;;;8.60;99.90;;;;;;4362931;32;20425;-80
2023/12/21 11:22:07;;;;;;;0.20;0.20;;;8.60;99.90;;;;;;4369365;32;20102;-78
2023/12/21 11:24:33;;;;;;;0.20;0.20;;;8.60;99.90;;;;;;4366097;32;20145;-80
2023/12/21 11:27:00;;;;;;;1.30;0.65;;;8.60;99.90;;;;;;4370754;32;20066;-78
2023/12/21 11:29:28;;;;;;;0.30;0.30;;;8.70;99.90;;;;;;4367440;32;20106;-81
2023/12/21 11:31:54;;;;;;;8.98;0.60;;;8.70;99.90;;;;;;4369781;32;20444;-78
2023/12/21 11:34:24;;;;;;;0.40;0.40;;;8.70;99.90;;;;;;4372335;32;20098;-77
2023/12/21 11:36:57;;;;;;;0.25;0.25;;;8.70;99.90;;;;;;4373324;32;20074;-79
2023/12/21 11:39:24;;;;;;;0.30;0.30;;;8.70;99.90;;;;;;4370301;32;20095;-79
2023/12/21 11:41:56;;;;;;;0.30;0.30;;;8.70;99.90;;;;;;4374003;32;20194;-79
2023/12/21 11:44:21;;;;;;;0.40;0.40;;;8.70;99.90;;;;;;4364931;32;20075;-81
2023/12/21 11:46:48;;;;;;;0.30;0.30;;;8.60;99.90;;;;;;4366324;32;20110;-80
2023/12/21 11:49:23;;;;;;;0.30;0.30;;;8.70;99.90;;;;;;4363583;32;20447;-79
2023/12/21 11:51:49;;;;;;;0.30;0.30;;;8.60;99.90;;;;;;4365313;32;99215;-78
2023/12/21 11:54:20;;;;;;;0.30;0.30;;;8.60;99.90;;;;;;4364260;32;20440;-77
2023/12/21 11:56:47;;;;;;;0.40;0.40;;;8.70;99.90;;;;;;4361301;32;25347;-79
2023/12/21 11:59:14;;;;;;;0.30;0.30;;;8.70;99.90;;;;;;4371344;27;20938;-61
2023/12/21 12:04:10;;;;;;;0.30;0.30;;;8.70;99.90;;;;;;4359106;32;20165;-61
2023/12/21 12:06:38;;;;;;;0.40;0.40;;;8.80;99.90;;;;;;4375197;27;20568;-72
2023/12/21 12:09:03;;;;;;;0.40;0.40;;;8.70;99.90;;;;;;4348536;32;21100;-73
2023/12/21 12:11:30;;;;;;;0.30;0.30;;;8.70;99.90;;;;;;4352881;32;20243;-75
2023/12/21 12:13:58;;;;;;;0.75;0.75;;;8.70;99.90;;;;;;4367539;32;20095;-73
2023/12/21 12:16:24;;;;;;;0.20;0.20;;;8.70;99.90;;;;;;4368157;32;20067;-73
2023/12/21 12:18:50;;;;;;;0.30;0.30;;;8.70;99.90;;;;;;4350868;32;20067;-73
2023/12/21 12:21:16;;;;;;;0.30;0.30;;;8.70;99.90;;;;;;4349537;32;21351;-73
2023/12/21 12:23:46;;;;;;;0.30;0.30;;;8.70;99.90;;;;;;4356783;32;20149;-74
2023/12/21 12:26:13;;;;;;;0.30;0.30;;;8.70;99.90;;;;;;4371196;32;20193;-73
2023/12/21 12:31:15;;;;;;;0.30;0.30;;;8.70;99.90;;;;;;3737118;30;20090;-64
2023/12/21 12:33:41;;;;;;;0.73;0.73;;;8.70;99.90;;;;;;4338491;32;20522;-63
2023/12/21 12:36:07;;;;;;;0.30;0.30;;;8.70;99.90;;;;;;4343817;32;20652;-66
2023/12/21 12:38:34;;;;;;;0.30;0.30;;;8.80;99.90;;;;;;4341142;32;20062;-68
2023/12/21 12:41:00;;;;;;;0.20;0.20;;;8.70;99.90;;;;;;4341690;32;20070;-66
2023/12/21 12:43:30;;;;;;;0.30;0.30;;;8.80;99.90;;;;;;4352550;32;20206;-65
2023/12/21 12:45:56;;;;;;;0.30;0.30;;;8.80;99.90;;;;;;4341406;32;20103;-65
2023/12/21 12:48:22;;;;;;;0.25;0.25;;;8.80;99.90;;;;;;4338052;32;20071;-66
2023/12/21 12:50:48;;;;;;;0.40;0.40;;;8.80;99.90;;;;;;4349695;32;20110;-67
2023/12/21 12:53:16;;;;;;;0.50;0.50;;;8.80;99.90;;;;;;4344907;32;20096;-66
2023/12/21 12:55:46;;;;;;;0.30;0.30;;;8.80;99.90;;;;;;4348690;32;20824;-65
2023/12/21 12:58:13;;;;;;;0.40;0.40;;;8.80;99.90;;;;;;4349187;32;20084;-65
2023/12/21 13:00:38;;;;;;;0.30;0.30;;;8.80;99.90;;;;;;4351946;32;20083;-65